CMA CGM Mozart — FZQM — position and weather

sailwx.info

Track history (hours):
 
Tides and Currents Weather Stations Pressure Air Temp Water Temp Dewpoint Dewpoint Depression Visibility Wind Speed Wind Dir Waves Ship Positions

CMA CGM Mozart

Last reported at 2018-May-24 14:00 UTC. Time now 2018-May-24 14:08 UTC.
Position N 01°20' E 103°16'.

Length 277 m; draft 12.4 m.

Type: Ship (hazmat cat D). MMSI: 226325000.

Date/timePositionNaut miles runAvg speedWind from/ knotsBaromVisibWave heightAir tempDewpointWater temp
2018-May-24 14:00N 01°20' E 103°16'3 6.7
2018-May-24 13:29N 01°22' E 103°13'  
2018-May-17 21:13N 18°29' E 072°03'54 2.0
2018-May-16 18:00N 18°55' E 072°52'510.6
2018-May-16 17:30N 18°51' E 072°49'5 9.1
2018-May-16 16:55N 18°50' E 072°43'3 6.5
2018-May-16 16:27N 18°50' E 072°40'612.6
2018-May-16 16:00N 18°50' E 072°34'510.3
2018-May-16 15:28N 18°50' E 072°29'510.2
2018-May-16 15:00N 18°49' E 072°24'510.9
2018-May-16 14:30N 18°50' E 072°18'815.9
2018-May-16 14:00N 18°51' E 072°10'815.9
2018-May-16 13:30N 18°52' E 072°01'917.3
2018-May-16 13:00N 18°52' E 071°52'917.3
2018-May-16 12:30N 18°52' E 071°43'1217.7
2018-May-16 11:51N 18°52' E 071°31'917.9
2018-May-16 11:20N 18°52' E 071°21'818.3
2018-May-16 10:53N 18°52' E 071°12'2317.7
2018-May-16 09:35N 19°05' E 070°52'419.9
2018-May-16 09:22N 19°09' E 070°50'819.9
2018-May-16 08:58N 19°15' E 070°44'917.6
2018-May-16 08:29N 19°23' E 070°44'919.3
2018-May-16 08:00N 19°32' E 070°47'1219.0
2018-May-16 07:22N 19°44' E 070°51'719.0
2018-May-16 07:00N 19°50' E 070°53'6417.0
2018-May-16 03:16N 20°09' E 071°58'2020.1
2018-May-16 02:15N 20°14' E 072°19'621.0
2018-May-16 01:58N 20°18' E 072°24'1021.8
2018-May-16 01:30N 20°28' E 072°27'1120.6
2018-May-16 01:00N 20°38' E 072°30'918.8
2018-May-16 00:30N 20°47' E 072°32'917.1
2018-May-15 23:59N 20°56' E 072°33'613.2
2018-May-15 23:30N 21°02' E 072°34'4 7.2
2018-May-15 23:00N 21°05' E 072°36'2 3.3
2018-May-15 22:30N 21°05' E 072°38'0 0.0
2018-May-15 22:00N 21°05' E 072°38'0 0.0
2018-May-15 21:30N 21°05' E 072°38'0 0.0
2018-May-15 20:42N 21°05' E 072°38'0 0.0
2018-May-15 20:30N 21°05' E 072°38'0 0.0
2018-May-15 20:00N 21°05' E 072°38'0 0.0
2018-May-15 19:30N 21°05' E 072°38'0 0.0
2018-May-15 19:00N 21°05' E 072°38'0 0.0
2018-May-15 18:30N 21°05' E 072°38'0 0.0
2018-May-15 18:00N 21°05' E 072°38'0 0.0
2018-May-15 17:30N 21°05' E 072°38'0 0.0
2018-May-15 17:00N 21°05' E 072°38'0 0.0
2018-May-15 16:30N 21°05' E 072°38'0 0.0
2018-May-15 15:54N 21°05' E 072°38'0 0.0
2018-May-15 15:30N 21°05' E 072°38'0 0.0
2018-May-15 14:54N 21°05' E 072°38'0 0.0
2018-May-15 14:30N 21°05' E 072°38'0 0.0
2018-May-15 14:00N 21°05' E 072°38'0 0.0
2018-May-15 13:30N 21°05' E 072°38'0 0.0
2018-May-15 13:00N 21°05' E 072°38'0 0.0
2018-May-15 12:30N 21°05' E 072°38'0 0.0
2018-May-15 12:00N 21°05' E 072°38'0 0.0
2018-May-15 11:30N 21°05' E 072°38'0 0.0
2018-May-15 11:00N 21°05' E 072°38'0 0.0
2018-May-15 10:30N 21°05' E 072°38'0 0.0
2018-May-15 10:00N 21°05' E 072°38'0 0.0
2018-May-15 09:30N 21°05' E 072°38'0 0.0
2018-May-15 09:00N 21°05' E 072°38'0 0.0
2018-May-15 08:30N 21°05' E 072°38'0 0.0
2018-May-15 07:54N 21°05' E 072°38'0 0.0
2018-May-15 07:30N 21°05' E 072°38'0 0.0
2018-May-15 07:00N 21°05' E 072°38'0 0.0
2018-May-15 06:24N 21°05' E 072°38'0 0.0
2018-May-15 06:00N 21°05' E 072°38'0 0.0
2018-May-15 05:30N 21°05' E 072°38'0 0.0
2018-May-15 04:54N 21°05' E 072°38'0 0.0
2018-May-15 04:30N 21°05' E 072°38'0 0.0
2018-May-15 04:00N 21°05' E 072°38'0 0.0
2018-May-15 03:30N 21°05' E 072°38'0 0.0
2018-May-15 03:00N 21°05' E 072°38'0 0.0
2018-May-15 02:30N 21°05' E 072°38'1 1.1
2018-May-15 02:00N 21°05' E 072°37'2 4.1
2018-May-15 01:30N 21°04' E 072°35'3 5.3
2018-May-15 00:59N 21°02' E 072°34'510.9
2018-May-15 00:29N 20°56' E 072°34'510.4
2018-May-15 00:00N 20°51' E 072°33'1910.9
2018-May-14 22:16N 20°33' E 072°29'414.2
2018-May-14 21:58N 20°29' E 072°28'714.6
2018-May-14 21:30N 20°22' E 072°27'2414.8
2018-May-14 19:53N 19°59' E 072°20'712.9
2018-May-14 19:23N 19°58' E 072°13'614.8
2018-May-14 19:00N 19°60' E 072°08'815.0
2018-May-14 18:26N 20°02' E 071°59'715.3
2018-May-14 18:00N 20°04' E 071°52'815.1
2018-May-14 17:30N 20°07' E 071°45'815.2
2018-May-14 16:59N 20°09' E 071°37'815.2
2018-May-14 16:29N 20°11' E 071°29'715.4
2018-May-14 16:00N 20°13' E 071°21'815.1
2018-May-14 15:30N 20°16' E 071°14'815.5
2018-May-14 15:00N 20°19' E 071°06'915.4
2018-May-14 14:27N 20°22' E 070°58'715.3
2018-May-14 14:00N 20°24' E 070°51'  
Track history (hours):
 
Tides and Currents Weather Stations Pressure Air Temp Water Temp Dewpoint Dewpoint Depression Visibility Wind Speed Wind Dir Waves Ship Positions

CMA CGM Mozart

Last reported at 2018-May-24 14:00 UTC. Time now 2018-May-24 14:08 UTC.
Position N 01°20' E 103°16'.

Length 277 m; draft 12.4 m.

Type: Ship (hazmat cat D). MMSI: 226325000.

Date/timePositionNaut miles runAvg speedWind from/ knotsBaromVisibWave heightAir tempDewpointWater temp
2018-May-24 14:00N 01°20' E 103°16'3 6.7
2018-May-24 13:29N 01°22' E 103°13'  
2018-May-17 21:13N 18°29' E 072°03'54 2.0
2018-May-16 18:00N 18°55' E 072°52'510.6
2018-May-16 17:30N 18°51' E 072°49'5 9.1
2018-May-16 16:55N 18°50' E 072°43'3 6.5
2018-May-16 16:27N 18°50' E 072°40'612.6
2018-May-16 16:00N 18°50' E 072°34'510.3
2018-May-16 15:28N 18°50' E 072°29'510.2
2018-May-16 15:00N 18°49' E 072°24'510.9
2018-May-16 14:30N 18°50' E 072°18'815.9
2018-May-16 14:00N 18°51' E 072°10'815.9
2018-May-16 13:30N 18°52' E 072°01'917.3
2018-May-16 13:00N 18°52' E 071°52'917.3
2018-May-16 12:30N 18°52' E 071°43'1217.7
2018-May-16 11:51N 18°52' E 071°31'917.9
2018-May-16 11:20N 18°52' E 071°21'818.3
2018-May-16 10:53N 18°52' E 071°12'2317.7
2018-May-16 09:35N 19°05' E 070°52'419.9
2018-May-16 09:22N 19°09' E 070°50'819.9
2018-May-16 08:58N 19°15' E 070°44'917.6
2018-May-16 08:29N 19°23' E 070°44'919.3
2018-May-16 08:00N 19°32' E 070°47'1219.0
2018-May-16 07:22N 19°44' E 070°51'719.0
2018-May-16 07:00N 19°50' E 070°53'6417.0
2018-May-16 03:16N 20°09' E 071°58'2020.1
2018-May-16 02:15N 20°14' E 072°19'621.0
2018-May-16 01:58N 20°18' E 072°24'1021.8
2018-May-16 01:30N 20°28' E 072°27'1120.6
2018-May-16 01:00N 20°38' E 072°30'918.8
2018-May-16 00:30N 20°47' E 072°32'917.1
2018-May-15 23:59N 20°56' E 072°33'613.2
2018-May-15 23:30N 21°02' E 072°34'4 7.2
2018-May-15 23:00N 21°05' E 072°36'2 3.3
2018-May-15 22:30N 21°05' E 072°38'0 0.0
2018-May-15 22:00N 21°05' E 072°38'0 0.0
2018-May-15 21:30N 21°05' E 072°38'0 0.0
2018-May-15 20:42N 21°05' E 072°38'0 0.0
2018-May-15 20:30N 21°05' E 072°38'0 0.0
2018-May-15 20:00N 21°05' E 072°38'0 0.0
2018-May-15 19:30N 21°05' E 072°38'0 0.0
2018-May-15 19:00N 21°05' E 072°38'0 0.0
2018-May-15 18:30N 21°05' E 072°38'0 0.0
2018-May-15 18:00N 21°05' E 072°38'0 0.0
2018-May-15 17:30N 21°05' E 072°38'0 0.0
2018-May-15 17:00N 21°05' E 072°38'0 0.0
2018-May-15 16:30N 21°05' E 072°38'0 0.0
2018-May-15 15:54N 21°05' E 072°38'0 0.0
2018-May-15 15:30N 21°05' E 072°38'0 0.0
2018-May-15 14:54N 21°05' E 072°38'0 0.0
2018-May-15 14:30N 21°05' E 072°38'0 0.0
2018-May-15 14:00N 21°05' E 072°38'0 0.0
2018-May-15 13:30N 21°05' E 072°38'0 0.0
2018-May-15 13:00N 21°05' E 072°38'0 0.0
2018-May-15 12:30N 21°05' E 072°38'0 0.0
2018-May-15 12:00N 21°05' E 072°38'0 0.0
2018-May-15 11:30N 21°05' E 072°38'0 0.0
2018-May-15 11:00N 21°05' E 072°38'0 0.0
2018-May-15 10:30N 21°05' E 072°38'0 0.0
2018-May-15 10:00N 21°05' E 072°38'0 0.0
2018-May-15 09:30N 21°05' E 072°38'0 0.0
2018-May-15 09:00N 21°05' E 072°38'0 0.0
2018-May-15 08:30N 21°05' E 072°38'0 0.0
2018-May-15 07:54N 21°05' E 072°38'0 0.0
2018-May-15 07:30N 21°05' E 072°38'0 0.0
2018-May-15 07:00N 21°05' E 072°38'0 0.0
2018-May-15 06:24N 21°05' E 072°38'0 0.0
2018-May-15 06:00N 21°05' E 072°38'0 0.0
2018-May-15 05:30N 21°05' E 072°38'0 0.0
2018-May-15 04:54N 21°05' E 072°38'0 0.0
2018-May-15 04:30N 21°05' E 072°38'0 0.0
2018-May-15 04:00N 21°05' E 072°38'0 0.0
2018-May-15 03:30N 21°05' E 072°38'0 0.0
2018-May-15 03:00N 21°05' E 072°38'0 0.0
2018-May-15 02:30N 21°05' E 072°38'1 1.1
2018-May-15 02:00N 21°05' E 072°37'2 4.1
2018-May-15 01:30N 21°04' E 072°35'3 5.3
2018-May-15 00:59N 21°02' E 072°34'510.9
2018-May-15 00:29N 20°56' E 072°34'510.4
2018-May-15 00:00N 20°51' E 072°33'1910.9
2018-May-14 22:16N 20°33' E 072°29'414.2
2018-May-14 21:58N 20°29' E 072°28'714.6
2018-May-14 21:30N 20°22' E 072°27'2414.8
2018-May-14 19:53N 19°59' E 072°20'712.9
2018-May-14 19:23N 19°58' E 072°13'614.8
2018-May-14 19:00N 19°60' E 072°08'815.0
2018-May-14 18:26N 20°02' E 071°59'715.3
2018-May-14 18:00N 20°04' E 071°52'815.1
2018-May-14 17:30N 20°07' E 071°45'815.2
2018-May-14 16:59N 20°09' E 071°37'815.2
2018-May-14 16:29N 20°11' E 071°29'715.4
2018-May-14 16:00N 20°13' E 071°21'815.1
2018-May-14 15:30N 20°16' E 071°14'815.5
2018-May-14 15:00N 20°19' E 071°06'915.4
2018-May-14 14:27N 20°22' E 070°58'715.3
2018-May-14 14:00N 20°24' E 070°51'  

Dump ship's entire track history